KLDJ

Linden Airport

Linden, New Jersey, USA
METAR KLDJ 220055Z AUTO 28006KT 10SM BKN065 23/15 A3027 RMK AO2 T02300151
Observed Flight Rules
Feb-22 @ 00:55 UTC (4 hours ago) Visual Flight Rules
Wind Visibility Clouds
280° at 6 knots 10 miles
  • Broken at 6,500' AGL
Temperatures Readings
Current 23°C / 73°F
Dewpoint 15°C / 59°F
Humidity 61%
Altimeter 30.27" Hg
Pressure 1025 hPa
Elevation 7
METAR KLDJ 220055Z AUTO 28006KT 10SM BKN065 23/15 A3027 RMK AO2 T02300151
Observed Flight Rules
Feb-22 @ 00:55 UTC
(4 hours ago)
VFR
Wind Visibility
280° at 6 knots 10 miles
Clouds
  • Broken at 6,500' AGL
Temperature Dewpoint
23°C / 73°F 15°C / 59°F
Humidity Altimeter Pressure
61% 30.27" Hg 1025 hPa